Latest Weather Observations for Redesdale

IDV60801

Issued at 11:32 pm EST Friday 22 September 2017 (issued every 30 minutes, with the page automatically refreshed every 10 minutes)

About weather observations | Map of weather stations | Latest weather observations for VIC | Other Formats
Station Details ID: 088051 Name: REDESDALE Lat: -37.02 Lon: 144.52 Height: 290.0 m
Data from the previous 72 hours. | See also: Recent months at Redesdale
Date/Time
EST
Temp
°C
App
Temp
°C
Dew
Point
°C
Rel
Hum
%
Delta-T
°C
Wind Press
QNH
hPa
Press
MSL
hPa
Rain since
9am
mm
Dir  Spd
km/h
Gust
km/h
Spd
kts
Gust
kts
22/11:30pm 9.0 7.0 7.0 87 1.0 SSW 7 9 4 5 - - -
22/11:00pm 8.8 6.5 7.3 90 0.7 E 9 11 5 6 - - -
22/10:30pm 9.2 6.9 7.6 90 0.8 ENE 9 9 5 5 - - -
22/10:00pm 9.5 7.3 7.8 89 0.8 ENE 9 9 5 5 - - -
22/09:30pm 9.8 8.0 7.9 88 0.9 ENE 7 9 4 5 - - -
22/09:00pm 9.6 7.7 7.5 87 1.0 ENE 7 9 4 5 - - -
22/08:30pm 10.3 9.1 8.1 86 1.1 NE 4 6 2 3 - - -
22/08:00pm 10.9 9.3 8.1 83 1.4 NE 6 6 3 3 - - -
22/07:30pm 11.7 10.4 7.8 77 1.9 NE 4 6 2 3 - - -
22/06:30pm 16.0 14.9 8.5 61 3.9 NE 4 4 2 2 - - -
22/06:00pm 19.4 18.2 9.6 53 5.3 NE 6 7 3 4 - - -
22/05:30pm 20.7 18.9 9.6 49 6.0 NNE 9 15 5 8 - - -
22/05:00pm 21.7 19.6 9.9 47 6.5 NE 11 17 6 9 - - -
22/04:30pm 21.5 18.3 8.4 43 7.0 NNE 15 20 8 11 - - -
22/04:00pm 22.5 19.9 9.3 43 7.2 N 13 20 7 11 - - -
22/03:30pm 22.8 20.0 8.5 40 7.7 NNE 13 19 7 10 - - -
22/03:00pm 23.1 20.4 9.1 41 7.6 N 13 19 7 10 - - 0.0
22/02:30pm 22.9 20.6 9.0 41 7.5 NNE 11 17 6 9 - - -
22/02:00pm 21.1 19.6 9.0 46 6.5 NNE 7 13 4 7 - - -
22/01:30pm 20.8 18.1 9.1 47 6.3 NNE 13 19 7 10 - - -
22/01:00pm 20.7 18.2 8.0 44 6.7 NNE 11 19 6 10 - - 0.0
22/12:30pm 21.1 19.4 8.4 44 6.8 NNE 7 13 4 7 - - 0.0
22/12:00pm 20.2 18.3 9.2 49 5.9 NNE 9 15 5 8 - - 0.0
22/11:30am 19.8 18.2 8.8 49 5.8 NNE 7 11 4 6 - - 0.0
22/11:00am 18.1 16.1 7.2 49 5.6 NNE 7 11 4 6 - - 0.0
22/10:30am 18.8 17.2 8.2 50 5.5 NE 6 11 3 6 - - 0.0
22/10:00am 17.7 16.2 6.9 49 5.5 NNE 4 7 2 4 - - 0.0
22/09:30am 16.3 14.0 5.9 50 5.1 NE 7 13 4 7 - - 0.0
22/09:00am 15.6 13.5 6.6 55 4.5 ENE 7 11 4 6 - - 0.0
22/08:30am 14.1 12.1 7.2 63 3.4 E 7 9 4 5 - - 0.0
22/08:00am 10.5 9.3 9.7 95 0.4 SW 6 7 3 4 - - 0.0
22/07:30am 7.6 5.6 7.3 98 0.1 SW 7 9 4 5 - - 0.0
22/07:00am 6.8 4.3 6.5 98 0.1 SSW 9 9 5 5 - - 0.0
22/06:30am 5.8 3.1 5.4 97 0.2 SSW 9 11 5 6 - - 0.0
22/06:00am 6.0 3.6 5.4 96 0.3 S 7 9 4 5 - - 0.0
22/05:30am 7.0 4.1 6.7 98 0.1 SW 11 13 6 7 - - 0.0
22/05:00am 5.8 3.4 5.4 97 0.2 SW 7 9 4 5 - - 0.0
22/04:30am 6.8 4.6 6.4 97 0.2 SSW 7 9 4 5 - - 0.0
22/04:00am 6.3 4.0 5.6 95 0.3 SSW 7 11 4 6 - - 0.0
22/03:30am 7.2 5.0 6.3 94 0.4 SSW 7 9 4 5 - - 0.0
22/03:00am 7.4 5.2 6.0 91 0.6 SSW 7 9 4 5 - - 0.0
22/02:30am 8.3 5.9 7.1 92 0.6 SW 9 11 5 6 - - 0.0
22/02:00am 7.4 5.1 5.7 89 0.8 SSW 7 9 4 5 - - 0.0
22/01:30am 8.4 6.2 6.2 86 1.0 SSW 7 9 4 5 - - 0.0
22/01:00am 9.0 6.4 6.1 82 1.4 S 9 11 5 6 - - 0.0
22/12:30am 10.6 7.3 6.6 76 1.9 S 13 15 7 8 - - 0.0
22/12:00am 10.9 8.0 6.5 74 2.1 S 11 13 6 7 - - 0.0
 
Date/Time
EST
Temp
°C
App
Temp
°C
Dew
Point
°C
Rel
Hum
%
Delta-T
°C
Wind Press
QNH
hPa
Press
MSL
hPa
Rain since
9am
mm
Dir  Spd
km/h
Gust
km/h
Spd
kts
Gust
kts
21/11:30pm 10.9 8.5 6.8 76 2.0 S 9 11 5 6 - - 0.0
21/11:00pm 10.1 7.6 6.4 78 1.8 S 9 11 5 6 - - 0.0
21/10:30pm 11.3 9.3 7.2 76 2.0 SSE 7 9 4 5 - - 0.0
21/10:00pm 11.1 9.1 7.2 77 1.9 SSE 7 7 4 4 - - 0.0
21/09:30pm 10.7 8.7 7.2 79 1.7 NW 7 9 4 5 - - 0.0
21/09:00pm 10.8 8.6 6.2 73 2.2 NW 7 9 4 5 - - 0.0
21/08:30pm 10.3 8.2 5.7 73 2.1 NNW 6 9 3 5 - - 0.0
21/08:00pm 13.2 11.6 4.6 56 4.0 N 2 6 1 3 - - 0.0
21/07:30pm 15.2 13.8 3.4 45 5.5 CALM 0 0 0 0 - - 0.0
21/07:00pm 16.6 15.0 2.6 39 6.4 CALM 0 2 0 1 - - 0.0
21/06:30pm 18.0 14.9 1.5 33 7.5 NNW 7 7 4 4 - - 0.0
21/06:00pm 19.2 16.2 2.1 32 7.9 N 7 9 4 5 - - 0.0
21/05:30pm 20.4 16.3 2.3 30 8.5 N 13 22 7 12 - - 0.0
21/05:00pm 21.9 17.1 2.6 28 9.2 N 17 26 9 14 - - 0.0
21/04:30pm 22.4 16.9 2.0 26 9.7 N 20 32 11 17 - - 0.0
21/04:00pm 22.3 16.9 2.4 27 9.5 N 20 32 11 17 - - 0.0
21/03:30pm 22.2 16.9 2.8 28 9.3 N 20 32 11 17 - - 0.0
21/03:00pm 22.3 17.2 3.9 30 9.1 N 20 30 11 16 - - 0.0
21/02:30pm 21.5 16.5 3.7 31 8.7 N 19 30 10 16 - - 0.0
21/02:00pm 21.0 15.9 6.2 38 7.5 N 22 32 12 17 - - 0.0
21/01:30pm 20.4 15.9 7.1 42 6.9 NNE 20 32 11 17 - - 0.0
21/01:00pm 19.4 14.5 6.8 44 6.4 NNE 22 37 12 20 - - 0.0
21/12:30pm 19.0 14.9 7.8 48 5.8 NNE 19 26 10 14 - - 0.0
21/12:00pm 17.5 13.1 6.4 48 5.6 NNE 19 33 10 18 - - 0.0
21/11:30am 16.4 12.0 6.5 52 4.9 N 19 28 10 15 - - 0.0
21/11:00am 15.6 11.4 5.8 52 4.8 NNE 17 33 9 18 - - 0.0
21/10:30am 14.7 10.5 5.5 54 4.4 NNE 17 26 9 14 - - 0.0
21/10:00am 13.8 10.9 6.4 61 3.6 NNE 11 19 6 10 - - 0.0
21/09:30am 12.9 9.6 6.3 64 3.2 NE 13 20 7 11 - - 0.0
21/09:00am 11.8 8.5 6.3 69 2.6 NE 13 24 7 13 - - 0.0
21/08:30am 10.2 8.2 6.4 77 1.8 SSW 6 9 3 5 - - 0.0
21/08:00am 8.7 7.0 5.8 82 1.3 SSW 4 6 2 3 - - 0.0
21/07:30am 7.5 6.4 6.9 96 0.3 SSW 2 6 1 3 - - 0.0
21/07:00am 4.1 2.7 3.4 95 0.3 CALM 0 2 0 1 - - 0.0
21/06:30am 3.6 1.3 2.9 95 0.3 SSW 4 6 2 3 - - 0.0
21/06:00am 3.3 1.4 2.7 96 0.2 SW 2 6 1 3 - - 0.0
21/05:30am 2.4 0.7 1.7 95 0.3 CALM 0 4 0 2 - - 0.0
21/05:00am 3.9 1.7 3.5 97 0.2 SW 4 7 2 4 - - 0.0
21/04:30am 1.8 0.0 1.2 96 0.2 CALM 0 2 0 1 - - 0.0
21/04:00am 1.7 -0.9 1.1 96 0.2 SW 4 4 2 2 - - 0.0
21/03:30am 2.4 -0.1 1.8 96 0.2 W 4 6 2 3 - - 0.0
21/03:00am 2.4 0.7 1.7 95 0.3 CALM 0 0 0 0 - - 0.0
21/02:30am 2.5 0.8 1.6 94 0.4 CALM 0 0 0 0 - - 0.0
21/02:00am 3.4 1.5 2.7 95 0.3 WSW 2 6 1 3 - - 0.0
21/01:30am 2.9 -0.1 2.2 95 0.3 SW 7 7 4 4 - - 0.0
21/01:00am 3.2 0.4 2.2 93 0.4 SW 6 6 3 3 - - 0.0
21/12:30am 3.9 1.2 2.6 91 0.5 SW 6 6 3 3 - - 0.0
21/12:00am 4.0 2.1 2.7 91 0.5 SW 2 4 1 2 - - 0.0
 
Date/Time
EST
Temp
°C
App
Temp
°C
Dew
Point
°C
Rel
Hum
%
Delta-T
°C
Wind Press
QNH
hPa
Press
MSL
hPa
Rain since
9am
mm
Dir  Spd
km/h
Gust
km/h
Spd
kts
Gust
kts
20/11:30pm 4.7 2.1 3.0 89 0.7 SW 6 6 3 3 - - 0.0
20/11:00pm 4.9 2.3 3.2 89 0.7 NNE 6 7 3 4 - - 0.0
20/10:30pm 6.0 4.6 3.7 85 1.0 CALM 0 0 0 0 - - 0.0
20/10:00pm 7.8 5.8 4.2 78 1.6 NNE 4 4 2 2 - - 0.0
20/09:30pm 8.2 6.0 5.1 81 1.4 NNE 6 9 3 5 - - 0.0
20/09:00pm 8.1 6.2 4.9 80 1.4 N 4 4 2 2 - - 0.0
20/08:30pm 8.5 7.0 5.1 79 1.5 N 2 4 1 2 - - 0.0
20/08:00pm 8.6 6.7 5.0 78 1.6 N 4 4 2 2 - - 0.0
20/07:30pm 10.7 9.0 5.9 72 2.3 N 4 6 2 3 - - 0.0
20/07:00pm 10.8 9.1 5.8 71 2.4 N 4 6 2 3 - - 0.0
20/06:30pm 11.5 9.7 5.4 66 2.9 N 4 4 2 2 - - 0.0
20/06:00pm 12.4 10.6 5.6 63 3.2 N 4 6 2 3 - - 0.0
20/05:30pm 13.8 10.2 5.2 56 4.1 N 13 17 7 9 - - 0.0
20/05:00pm 15.2 11.8 5.7 53 4.6 N 13 20 7 11 - - 0.0
20/04:30pm 15.1 12.5 6.1 55 4.4 N 9 17 5 9 - - 0.0
20/04:00pm 15.8 13.7 6.0 52 4.8 NNE 6 11 3 6 - - 0.0
20/03:30pm 16.6 13.5 5.6 48 5.4 NNW 11 19 6 10 - - 0.0
20/03:00pm 16.3 14.0 5.9 50 5.1 NNW 7 17 4 9 - - 0.0
20/02:30pm 16.1 13.0 5.7 50 5.1 N 11 19 6 10 - - 0.0
20/02:00pm 15.9 13.2 5.5 50 5.1 NNW 9 17 5 9 - - 0.0
20/01:30pm 15.3 12.2 5.5 52 4.7 N 11 17 6 9 - - 0.0
20/01:00pm 15.2 12.1 5.4 52 4.7 NNW 11 17 6 9 - - 0.0
20/12:30pm 14.4 11.0 6.0 57 4.1 NNW 13 20 7 11 - - 0.0
20/12:00pm 14.1 11.8 5.7 57 4.0 NNE 7 15 4 8 - - 0.0
20/11:30am 13.0 9.8 5.2 59 3.7 N 11 20 6 11 - - 0.0
20/11:00am 12.5 8.9 5.2 61 3.4 N 13 19 7 10 - - 0.0
20/10:30am 12.2 8.6 5.1 62 3.3 N 13 19 7 10 - - 0.0
20/10:00am 11.2 7.5 4.4 63 3.1 N 13 20 7 11 - - 0.0
20/09:30am 10.3 7.8 4.9 69 2.5 NNE 7 13 4 7 - - 0.0
20/09:00am 8.9 6.9 4.5 74 2.0 SSW 4 9 2 5 - - 0.2
20/08:30am 7.5 5.8 5.8 89 0.8 S 4 6 2 3 - - 0.2
20/08:00am 6.2 5.3 6.1 99 0.0 CALM 0 2 0 1 - - 0.2
20/07:30am 3.7 1.5 3.6 99 0.0 S 4 6 2 3 - - 0.2
20/07:00am 1.2 -1.8 1.1 99 0.0 S 6 7 3 4 - - 0.2
20/06:30am 0.4 -2.7 0.1 98 0.1 SSW 6 9 3 5 - - 0.2
20/06:00am 0.3 -2.8 0.0 98 0.1 S 6 6 3 3 - - 0.2
20/05:30am 0.9 -2.1 0.6 98 0.1 SSW 6 7 3 4 - - 0.2
20/05:00am 1.0 -1.7 0.6 97 0.2 SSW 4 6 2 3 - - 0.2
20/04:30am 1.1 -1.5 0.7 97 0.2 SSW 4 6 2 3 - - 0.2
20/04:00am 1.6 -1.4 1.0 96 0.2 SSW 6 6 3 3 - - 0.2
20/03:30am 2.0 -0.5 1.4 96 0.2 SSW 4 6 2 3 - - 0.2
20/03:00am 2.7 0.3 2.1 96 0.2 SSW 4 6 2 3 - - 0.2
20/02:30am 2.8 0.0 2.1 95 0.3 SSW 6 7 3 4 - - 0.0
20/02:00am 3.0 1.0 2.1 94 0.4 SSW 2 6 1 3 - - 0.0
20/01:30am 2.9 -0.1 1.9 93 0.4 SSW 7 9 4 5 - - 0.0
20/01:00am 3.4 0.7 2.5 94 0.4 SSW 6 7 3 4 - - 0.0
20/12:30am 3.8 1.0 3.1 95 0.3 S 7 9 4 5 - - 0.0
20/12:00am 2.4 -0.5 1.5 94 0.4 SSW 6 7 3 4 - - 0.0

Other Formats:

Comma delimited format used in spreadsheet applications
http://www.bom.gov.au/fwo/IDV60801/IDV60801.94859.axf

JavaScript Object Notation format (JSON) in row-major order
http://www.bom.gov.au/fwo/IDV60801/IDV60801.94859.json